Time;durP1;ratioP1;P1;durP2;ratioP2;P2;SDS_P1;SDS_P2;PMS_P1;PMS_P2;Temp;Humidity;BMP_temperature;BMP_pressure;BME280_temperature;BME280_humidity;BME280_pressure;Samples;Min_cycle;Max_cycle;Signal;HPM_P1;HPM_P2
2022/05/06 00:01:44;;;;;;;11.50;6.68;;;16.90;99.90;;;;;;5037805;28;20043;-49
2022/05/06 00:04:10;;;;;;;8.73;6.53;;;16.70;99.90;;;;;;5055419;28;20403;-50
2022/05/06 00:06:36;;;;;;;10.02;7.07;;;16.60;99.90;;;;;;5056247;28;20016;-49
2022/05/06 00:09:03;;;;;;;10.20;7.07;;;16.50;99.90;;;;;;5055138;28;20024;-51
2022/05/06 00:11:30;;;;;;;10.50;7.18;;;16.50;99.90;;;;;;5057587;28;20059;-47
2022/05/06 00:13:55;;;;;;;8.73;6.63;;;16.40;99.90;;;;;;5056359;28;20052;-49
2022/05/06 00:16:22;;;;;;;11.02;7.22;;;16.40;99.90;;;;;;5054351;28;20044;-49
2022/05/06 00:18:49;;;;;;;8.88;7.30;;;16.30;99.90;;;;;;5050618;28;20025;-47
2022/05/06 00:21:15;;;;;;;10.27;6.78;;;16.40;99.90;;;;;;5056636;28;20035;-47
2022/05/06 00:23:41;;;;;;;11.13;7.15;;;16.30;99.90;;;;;;5053209;28;20083;-49
2022/05/06 00:26:07;;;;;;;7.93;7.07;;;16.30;99.90;;;;;;5056736;28;20102;-49
2022/05/06 00:28:34;;;;;;;10.45;7.10;;;16.20;99.90;;;;;;5054519;28;20448;-47
2022/05/06 00:31:02;;;;;;;12.52;7.40;;;16.30;99.90;;;;;;5056748;28;20071;-48
2022/05/06 00:33:29;;;;;;;16.50;9.18;;;16.40;99.90;;;;;;5053406;28;20075;-48
2022/05/06 00:35:57;;;;;;;14.55;7.65;;;16.30;99.90;;;;;;5058625;28;20033;-49
2022/05/06 00:38:23;;;;;;;10.75;7.75;;;16.30;99.90;;;;;;5058027;28;20392;-46
2022/05/06 00:40:48;;;;;;;15.68;8.18;;;16.30;99.90;;;;;;5056616;28;20335;-47
2022/05/06 00:43:14;;;;;;;8.45;7.55;;;16.30;99.90;;;;;;5056316;28;20032;-50
2022/05/06 00:45:49;;;;;;;9.85;6.95;;;16.20;99.90;;;;;;5053159;28;20469;-47
2022/05/06 00:48:16;;;;;;;10.88;7.68;;;16.20;99.90;;;;;;5051051;28;20031;-47
2022/05/06 00:50:43;;;;;;;12.18;7.53;;;16.20;99.90;;;;;;5056263;28;20036;-47
2022/05/06 00:53:09;;;;;;;12.48;8.02;;;16.20;99.90;;;;;;5055051;28;20049;-50
2022/05/06 00:55:36;;;;;;;10.13;8.18;;;16.20;99.90;;;;;;5053261;28;20111;-50
2022/05/06 00:58:06;;;;;;;16.70;7.93;;;16.00;99.90;;;;;;5058297;28;20025;-50
2022/05/06 01:00:32;;;;;;;10.48;8.18;;;15.90;99.90;;;;;;5053960;28;20016;-46
2022/05/06 01:02:58;;;;;;;11.00;8.20;;;15.90;99.90;;;;;;5054412;28;20036;-50
2022/05/06 01:05:25;;;;;;;11.60;8.48;;;15.90;99.90;;;;;;5054503;28;20040;-47
2022/05/06 01:07:51;;;;;;;10.82;7.70;;;15.90;99.90;;;;;;5009858;28;20029;-49
2022/05/06 01:10:19;;;;;;;10.65;8.13;;;15.90;99.90;;;;;;5054026;28;20060;-49
2022/05/06 01:12:45;;;;;;;11.52;8.02;;;15.80;99.90;;;;;;5041256;28;20025;-49
2022/05/06 01:15:23;;;;;;;10.15;7.65;;;15.90;99.90;;;;;;5052955;28;20465;-49
2022/05/06 01:17:51;;;;;;;10.35;7.25;;;16.00;99.90;;;;;;5057134;28;20103;-49
2022/05/06 01:20:18;;;;;;;9.60;7.93;;;16.10;99.90;;;;;;5054875;28;20029;-50
2022/05/06 01:22:50;;;;;;;10.60;8.73;;;16.00;99.90;;;;;;5053415;28;20025;-47
2022/05/06 01:25:17;;;;;;;14.50;9.18;;;15.80;99.90;;;;;;5060424;28;20017;-50
2022/05/06 01:28:03;;;;;;;12.50;9.15;;;15.90;99.90;;;;;;5059971;28;20096;-48
2022/05/06 01:30:29;;;;;;;13.02;9.15;;;15.80;99.90;;;;;;5052745;28;20400;-50
2022/05/06 01:32:56;;;;;;;11.43;8.95;;;15.90;99.90;;;;;;5057698;28;20035;-50
2022/05/06 01:35:24;;;;;;;12.68;9.35;;;16.00;99.90;;;;;;5058705;28;20427;-47
2022/05/06 01:37:53;;;;;;;13.52;8.93;;;16.10;99.90;;;;;;5058778;28;20037;-49
2022/05/06 01:40:21;;;;;;;10.82;8.52;;;16.20;99.90;;;;;;5040176;28;20036;-47
2022/05/06 01:42:50;;;;;;;12.18;9.23;;;16.30;99.90;;;;;;5066927;28;20103;-50
2022/05/06 01:45:18;;;;;;;14.13;9.00;;;16.40;99.90;;;;;;5056167;28;20431;-47
2022/05/06 01:47:45;;;;;;;10.68;8.75;;;16.40;99.90;;;;;;5058870;28;20112;-48
2022/05/06 01:50:12;;;;;;;12.80;8.52;;;16.50;99.90;;;;;;5059173;28;20032;-47
2022/05/06 01:52:41;;;;;;;10.93;8.50;;;16.50;99.90;;;;;;5056420;28;20076;-48
2022/05/06 01:55:08;;;;;;;11.93;9.00;;;16.40;99.90;;;;;;5058024;28;20041;-49
2022/05/06 01:57:33;;;;;;;12.20;8.93;;;16.20;99.90;;;;;;5055073;28;20116;-50
2022/05/06 01:59:59;;;;;;;9.40;8.25;;;16.10;99.90;;;;;;5030218;28;20128;-50
2022/05/06 02:02:25;;;;;;;10.40;8.20;;;15.90;99.90;;;;;;5059559;28;20029;-47
2022/05/06 02:07:52;;;;;;;12.00;8.90;;;15.90;99.90;;;;;;4972663;28;20037;-49
2022/05/06 02:10:20;;;;;;;9.18;8.02;;;15.80;99.90;;;;;;4968784;28;20046;-48
2022/05/06 02:12:46;;;;;;;9.55;7.70;;;15.80;99.90;;;;;;4955071;29;20074;-49
2022/05/06 02:15:14;;;;;;;9.70;7.78;;;15.60;99.90;;;;;;4954107;29;20122;-47
2022/05/06 02:17:41;;;;;;;12.02;7.22;;;15.60;99.90;;;;;;4955604;28;20456;-47
2022/05/06 02:20:09;;;;;;;11.90;8.18;;;15.70;99.90;;;;;;4955941;28;20038;-46
2022/05/06 02:22:36;;;;;;;10.55;7.85;;;15.60;99.90;;;;;;4936572;29;20488;-48
2022/05/06 02:25:09;;;;;;;8.23;7.28;;;15.60;99.90;;;;;;4952456;29;20044;-48
2022/05/06 02:27:36;;;;;;;12.68;7.85;;;15.50;99.90;;;;;;4936528;29;20409;-51
2022/05/06 02:35:31;;;;;;;9.52;7.55;;;15.50;99.90;;;;;;4923270;29;20440;-48
2022/05/06 02:37:56;;;;;;;9.68;7.65;;;15.40;99.90;;;;;;4936388;29;20044;-49
2022/05/06 02:40:22;;;;;;;8.70;7.30;;;15.30;99.90;;;;;;4936406;29;20071;-49
2022/05/06 02:42:48;;;;;;;8.27;7.07;;;15.30;99.90;;;;;;4992041;28;20089;-47
2022/05/06 02:45:16;;;;;;;10.68;7.10;;;15.30;99.90;;;;;;5017050;28;20037;-47
2022/05/06 02:47:41;;;;;;;9.27;7.13;;;15.20;99.90;;;;;;4984134;28;20042;-50
2022/05/06 02:50:08;;;;;;;9.65;7.85;;;15.30;99.90;;;;;;4984180;28;20045;-48
2022/05/06 02:52:33;;;;;;;8.88;7.95;;;15.30;99.90;;;;;;4983973;28;20034;-49
2022/05/06 02:54:59;;;;;;;11.43;7.45;;;15.30;99.90;;;;;;5033545;28;20515;-50
2022/05/06 02:57:25;;;;;;;8.55;7.28;;;15.20;99.90;;;;;;5033506;28;20060;-48
2022/05/06 02:59:50;;;;;;;11.10;7.63;;;15.20;99.90;;;;;;5022301;28;20038;-48
2022/05/06 03:02:17;;;;;;;9.02;7.78;;;15.30;99.90;;;;;;5035540;28;20554;-50
2022/05/06 03:04:42;;;;;;;8.90;7.78;;;15.40;99.90;;;;;;5035437;28;20025;-47
2022/05/06 03:07:08;;;;;;;9.98;8.35;;;15.50;99.90;;;;;;5050127;28;20064;-50
2022/05/06 03:09:38;;;;;;;9.52;8.25;;;15.60;99.90;;;;;;5050050;28;20473;-50
2022/05/06 03:12:05;;;;;;;9.23;8.20;;;15.70;99.90;;;;;;5035065;28;20499;-48
2022/05/06 03:14:31;;;;;;;10.45;7.85;;;15.60;99.90;;;;;;5049591;28;20382;-48
2022/05/06 03:16:56;;;;;;;14.60;9.48;;;15.50;99.90;;;;;;5035293;28;20033;-47
2022/05/06 03:19:22;;;;;;;14.82;10.32;;;15.60;99.90;;;;;;5035111;28;20029;-48
2022/05/06 03:21:54;;;;;;;22.95;9.93;;;15.70;99.90;;;;;;5049832;28;20033;-49
2022/05/06 03:24:20;;;;;;;12.07;9.65;;;15.80;99.90;;;;;;5034926;28;20117;-49
2022/05/06 03:26:46;;;;;;;34.45;11.68;;;15.80;99.90;;;;;;5035127;28;20049;-47
2022/05/06 03:29:12;;;;;;;18.00;10.13;;;15.90;99.90;;;;;;5034949;28;20489;-50
2022/05/06 03:31:38;;;;;;;10.93;9.05;;;15.90;99.90;;;;;;5034679;28;20124;-50
2022/05/06 03:34:05;;;;;;;15.25;9.77;;;15.90;99.90;;;;;;5049533;28;20112;-51
2022/05/06 03:36:32;;;;;;;19.10;10.18;;;15.90;99.90;;;;;;5034946;28;20029;-50
2022/05/06 03:38:58;;;;;;;25.60;10.82;;;15.90;99.90;;;;;;5049143;28;20073;-50
2022/05/06 03:41:24;;;;;;;16.42;11.25;;;15.90;99.90;;;;;;5034652;28;20053;-47
2022/05/06 03:43:50;;;;;;;17.98;10.80;;;16.00;99.90;;;;;;5034223;28;20497;-51
2022/05/06 03:46:15;;;;;;;18.77;11.00;;;16.00;99.90;;;;;;5034612;28;20033;-48
2022/05/06 03:48:41;;;;;;;24.60;11.82;;;16.00;99.90;;;;;;5034432;28;20056;-48
2022/05/06 03:51:22;;;;;;;21.73;11.15;;;16.00;99.90;;;;;;5049191;28;20432;-49
2022/05/06 03:53:52;;;;;;;20.80;10.45;;;16.00;99.90;;;;;;5034200;28;20497;-50
2022/05/06 03:56:19;;;;;;;23.13;11.85;;;16.00;99.90;;;;;;5034440;28;20424;-47
2022/05/06 03:58:45;;;;;;;19.92;11.38;;;16.00;99.90;;;;;;5032456;28;20045;-50
2022/05/06 04:01:12;;;;;;;13.38;10.80;;;16.10;99.90;;;;;;5034413;28;20033;-50
2022/05/06 04:03:40;;;;;;;13.85;11.38;;;16.00;99.90;;;;;;5034362;28;20060;-48
2022/05/06 04:06:06;;;;;;;14.65;10.60;;;15.70;99.90;;;;;;5034215;28;20029;-47
2022/05/06 04:08:32;;;;;;;14.07;10.18;;;15.40;99.90;;;;;;5033936;28;20490;-48
2022/05/06 04:10:58;;;;;;;12.52;10.32;;;15.20;99.90;;;;;;5048724;28;20040;-48
2022/05/06 04:13:24;;;;;;;10.93;9.70;;;15.10;99.90;;;;;;5053220;28;20060;-50
2022/05/06 04:15:50;;;;;;;15.93;11.18;;;15.20;99.90;;;;;;5049358;28;20358;-49
2022/05/06 04:18:17;;;;;;;11.93;9.52;;;15.30;99.90;;;;;;5051156;28;20480;-48
2022/05/06 04:23:30;;;;;;;13.05;10.07;;;15.70;99.90;;;;;;5053215;28;20039;-47
2022/05/06 04:26:04;;;;;;;12.70;10.38;;;15.80;99.90;;;;;;5050530;28;20037;-50
2022/05/06 04:28:31;;;;;;;13.25;10.90;;;15.80;99.90;;;;;;5052977;28;20033;-47
2022/05/06 04:30:58;;;;;;;14.75;11.05;;;15.50;99.90;;;;;;5053500;28;20503;-48
2022/05/06 04:33:27;;;;;;;14.00;10.45;;;15.40;99.90;;;;;;5053268;28;20033;-48
2022/05/06 04:35:54;;;;;;;11.90;10.70;;;15.20;99.90;;;;;;5051631;28;20059;-49
2022/05/06 04:38:22;;;;;;;14.80;10.82;;;15.30;99.90;;;;;;5053520;28;20032;-49
2022/05/06 04:40:49;;;;;;;14.73;10.10;;;15.50;99.90;;;;;;5053632;28;20087;-51
2022/05/06 04:43:18;;;;;;;11.90;10.60;;;15.70;99.90;;;;;;5053500;28;20396;-50
2022/05/06 04:45:44;;;;;;;16.98;11.70;;;15.90;99.90;;;;;;5053307;28;20491;-47
2022/05/06 04:48:11;;;;;;;13.68;10.70;;;16.10;99.90;;;;;;5051577;28;20021;-50
2022/05/06 04:50:39;;;;;;;14.77;9.80;;;16.10;99.90;;;;;;5052821;28;20040;-50
2022/05/06 04:53:09;;;;;;;14.00;10.13;;;16.10;99.90;;;;;;5053281;28;20052;-47
2022/05/06 04:55:54;;;;;;;13.75;10.63;;;16.20;99.90;;;;;;5052777;28;20039;-50
2022/05/06 04:58:20;;;;;;;12.07;9.25;;;16.20;99.90;;;;;;5053088;28;20029;-49
2022/05/06 05:00:47;;;;;;;13.95;10.98;;;16.20;99.90;;;;;;5047573;28;20037;-48
2022/05/06 05:03:12;;;;;;;12.73;11.00;;;16.30;99.90;;;;;;5048972;28;20112;-48
2022/05/06 05:05:38;;;;;;;15.43;11.60;;;16.30;99.90;;;;;;5048750;28;20117;-50
2022/05/06 05:08:04;;;;;;;14.88;11.70;;;16.10;99.90;;;;;;5048977;28;20057;-51
2022/05/06 05:10:30;;;;;;;16.60;11.95;;;16.20;99.90;;;;;;5049873;28;20037;-48
2022/05/06 05:12:56;;;;;;;15.82;10.75;;;16.00;99.90;;;;;;5050451;28;20358;-50
2022/05/06 05:15:22;;;;;;;16.60;12.57;;;16.00;99.90;;;;;;5032569;28;20128;-48
2022/05/06 05:17:48;;;;;;;16.35;14.38;;;16.30;99.90;;;;;;5051389;28;20033;-55
2022/05/06 05:20:14;;;;;;;22.42;15.50;;;16.20;99.90;;;;;;5052361;28;20032;-53
2022/05/06 05:22:40;;;;;;;17.85;15.00;;;16.20;99.90;;;;;;5044894;28;20037;-54
2022/05/06 05:25:07;;;;;;;17.70;15.75;;;16.30;99.90;;;;;;5044371;28;20040;-55
2022/05/06 05:27:34;;;;;;;20.13;14.30;;;16.20;99.90;;;;;;5042281;28;20041;-57
2022/05/06 05:30:01;;;;;;;21.45;13.23;;;16.30;99.90;;;;;;5051994;28;20033;-55
2022/05/06 05:32:27;;;;;;;16.50;12.95;;;16.10;99.90;;;;;;5046145;28;20040;-53
2022/05/06 05:34:53;;;;;;;19.40;15.23;;;16.10;99.90;;;;;;5050083;28;20029;-56
2022/05/06 05:37:19;;;;;;;18.27;15.52;;;16.30;99.90;;;;;;5047296;28;20121;-57
2022/05/06 05:39:45;;;;;;;24.95;15.45;;;16.30;99.90;;;;;;5041678;28;20453;-55
2022/05/06 05:42:13;;;;;;;14.90;12.13;;;16.50;99.90;;;;;;5030883;28;20050;-55
2022/05/06 05:50:07;;;;;;;17.27;12.30;;;16.80;99.90;;;;;;5053784;28;20448;-55
2022/05/06 05:52:33;;;;;;;16.88;12.32;;;16.70;99.90;;;;;;5050519;28;20037;-56
2022/05/06 05:54:59;;;;;;;17.50;13.52;;;16.70;99.90;;;;;;5052607;28;20467;-55
2022/05/06 05:57:25;;;;;;;20.55;12.38;;;16.40;99.90;;;;;;5053042;28;20082;-53
2022/05/06 05:59:51;;;;;;;18.13;12.95;;;16.20;99.90;;;;;;5033930;28;20090;-56
2022/05/06 06:02:17;;;;;;;17.85;13.35;;;16.30;99.90;;;;;;5050912;28;20040;-56
2022/05/06 06:04:43;;;;;;;18.10;13.05;;;16.30;99.90;;;;;;5052812;28;20032;-53
2022/05/06 06:07:10;;;;;;;16.75;11.60;;;16.50;99.90;;;;;;5054813;28;20037;-54
2022/05/06 06:09:36;;;;;;;17.60;12.38;;;16.40;99.90;;;;;;5056300;28;20543;-53
2022/05/06 06:12:02;;;;;;;17.77;12.05;;;16.50;99.90;;;;;;5055700;28;20123;-53
2022/05/06 06:14:28;;;;;;;19.65;12.02;;;16.60;99.90;;;;;;5056309;28;20051;-54
2022/05/06 06:16:54;;;;;;;20.00;12.07;;;16.80;99.90;;;;;;5055588;28;20473;-54
2022/05/06 06:19:20;;;;;;;18.42;11.40;;;16.80;99.90;;;;;;5055494;28;20021;-55
2022/05/06 06:21:45;;;;;;;18.23;12.77;;;16.90;99.90;;;;;;5055795;28;20094;-54
2022/05/06 06:24:12;;;;;;;17.58;13.18;;;17.10;99.90;;;;;;5056302;28;20096;-54
2022/05/06 06:26:38;;;;;;;19.08;12.65;;;17.20;99.90;;;;;;5056319;28;20036;-53
2022/05/06 06:29:04;;;;;;;25.23;12.93;;;17.30;99.90;;;;;;5055375;28;20039;-54
2022/05/06 06:31:31;;;;;;;21.00;13.07;;;17.50;99.90;;;;;;5054336;28;20110;-53
2022/05/06 06:33:59;;;;;;;20.00;14.55;;;17.40;99.90;;;;;;5056203;28;20476;-52
2022/05/06 06:36:26;;;;;;;18.60;11.93;;;17.40;99.90;;;;;;5056154;28;20025;-56
2022/05/06 06:38:52;;;;;;;20.98;13.32;;;17.50;99.90;;;;;;5056173;28;20063;-56
2022/05/06 06:41:18;;;;;;;14.10;11.93;;;17.80;99.90;;;;;;5055780;28;20106;-56
2022/05/06 06:43:44;;;;;;;15.88;11.32;;;18.10;99.90;;;;;;5056013;28;20025;-54
2022/05/06 06:46:09;;;;;;;14.52;11.38;;;17.90;99.90;;;;;;5054056;28;20051;-55
2022/05/06 06:48:35;;;;;;;18.83;11.68;;;17.70;99.90;;;;;;5055668;28;20040;-53
2022/05/06 06:51:01;;;;;;;20.17;13.07;;;18.10;99.90;;;;;;5055807;28;20083;-55
2022/05/06 06:53:27;;;;;;;24.17;13.82;;;18.20;99.90;;;;;;5055457;28;20381;-54
2022/05/06 06:55:53;;;;;;;15.70;12.25;;;18.50;99.90;;;;;;5055709;28;20032;-54
2022/05/06 06:58:19;;;;;;;17.08;12.13;;;18.40;99.90;;;;;;5055517;28;20025;-53
2022/05/06 07:00:44;;;;;;;15.88;11.32;;;18.40;99.90;;;;;;5053827;28;20440;-53
2022/05/06 07:03:14;;;;;;;15.18;11.02;;;;;;;;;;5055357;28;20033;-56
2022/05/06 07:13:55;;;;;;;17.25;11.60;;;19.00;99.90;;;;;;5055536;28;20173;-55
2022/05/06 07:16:21;;;;;;;18.13;10.75;;;19.20;99.90;;;;;;5055210;28;20025;-55
2022/05/06 07:18:47;;;;;;;14.88;11.23;;;19.30;99.90;;;;;;5054513;28;20044;-54
2022/05/06 07:21:12;;;;;;;16.95;11.40;;;19.40;99.90;;;;;;5055136;28;20381;-57
2022/05/06 07:23:38;;;;;;;15.07;10.70;;;19.40;99.90;;;;;;5055199;28;20064;-55
2022/05/06 07:26:04;;;;;;;12.63;10.80;;;19.60;99.90;;;;;;5053490;28;20040;-54
2022/05/06 07:28:29;;;;;;;14.60;10.73;;;19.40;99.90;;;;;;5055302;28;20031;-54
2022/05/06 07:30:55;;;;;;;14.50;10.38;;;19.40;99.90;;;;;;5054798;28;20040;-55
2022/05/06 07:33:21;;;;;;;14.85;9.77;;;19.60;99.90;;;;;;5054820;28;20029;-54
2022/05/06 07:35:47;;;;;;;12.93;8.57;;;19.80;99.90;;;;;;5054772;28;20393;-57
2022/05/06 07:38:12;;;;;;;13.38;9.35;;;20.00;99.90;;;;;;5054639;28;20029;-54
2022/05/06 07:40:38;;;;;;;13.10;8.60;;;20.10;99.90;;;;;;5069846;28;20041;-57
2022/05/06 07:43:04;;;;;;;15.73;9.40;;;20.10;99.90;;;;;;5052170;28;20111;-56
2022/05/06 07:45:30;;;;;;;12.93;9.10;;;19.70;99.90;;;;;;5050368;28;20131;-53
2022/05/06 07:47:55;;;;;;;15.05;8.48;;;19.70;99.90;;;;;;5050510;28;20052;-53
2022/05/06 07:50:21;;;;;;;10.55;8.15;;;19.40;99.90;;;;;;5052481;28;20040;-51
2022/05/06 07:52:49;;;;;;;13.75;8.13;;;19.40;99.90;;;;;;5050217;28;20049;-50
2022/05/06 07:55:17;;;;;;;13.35;8.27;;;19.20;99.90;;;;;;5052650;28;20151;-51
2022/05/06 07:57:42;;;;;;;11.88;8.43;;;19.60;99.90;;;;;;5050960;28;20033;-51
2022/05/06 08:00:09;;;;;;;14.90;8.48;;;19.40;99.90;;;;;;5052481;28;20396;-52
2022/05/06 08:05:22;;;;;;;10.68;7.95;;;19.80;99.90;;;;;;5051770;28;20032;-52
2022/05/06 08:07:48;;;;;;;9.93;7.70;;;20.10;99.90;;;;;;5052264;28;20036;-50
2022/05/06 08:10:14;;;;;;;10.77;7.72;;;19.90;99.90;;;;;;5052326;28;20017;-53
2022/05/06 08:12:40;;;;;;;11.88;8.88;;;20.20;99.90;;;;;;5050655;28;20067;-52
2022/05/06 08:15:07;;;;;;;14.00;9.55;;;20.20;99.90;;;;;;5051457;28;20118;-51
2022/05/06 08:17:32;;;;;;;12.45;9.52;;;20.00;99.90;;;;;;5050492;28;20117;-50
2022/05/06 08:19:59;;;;;;;13.23;8.55;;;20.40;99.90;;;;;;5051852;28;20104;-52
2022/05/06 08:22:27;;;;;;;11.05;8.35;;;20.70;99.90;;;;;;5051997;28;20112;-51
2022/05/06 08:24:53;;;;;;;12.15;8.75;;;20.90;99.90;;;;;;5051844;28;20491;-50
2022/05/06 08:27:19;;;;;;;12.43;8.63;;;21.10;99.90;;;;;;5051862;28;20029;-51
2022/05/06 08:29:44;;;;;;;10.85;8.50;;;21.10;99.90;;;;;;5048775;28;20037;-52
2022/05/06 08:32:10;;;;;;;18.15;8.98;;;21.20;99.90;;;;;;5048272;28;20048;-53
2022/05/06 08:34:37;;;;;;;10.70;7.82;;;21.20;99.90;;;;;;5050694;28;20025;-52
2022/05/06 08:37:03;;;;;;;12.30;8.27;;;21.30;99.90;;;;;;5050436;28;20063;-51
2022/05/06 08:39:28;;;;;;;12.10;8.38;;;21.40;99.90;;;;;;5047000;28;20056;-52
2022/05/06 08:41:55;;;;;;;10.77;8.43;;;21.50;99.90;;;;;;5051173;28;20051;-51
2022/05/06 08:52:41;;;;;;;10.45;7.53;;;22.00;99.90;;;;;;5049918;28;20056;-52
2022/05/06 08:55:08;;;;;;;13.82;8.30;;;22.10;99.90;;;;;;5050251;28;20128;-52
2022/05/06 08:57:35;;;;;;;9.98;7.13;;;21.80;99.90;;;;;;5050253;28;20036;-51
2022/05/06 09:00:02;;;;;;;12.32;6.82;;;22.00;99.90;;;;;;5050469;28;20029;-52
2022/05/06 09:02:30;;;;;;;14.23;7.47;;;22.00;99.90;;;;;;5050524;28;20033;-53
2022/05/06 09:04:57;;;;;;;8.23;6.50;;;22.30;99.90;;;;;;5062377;28;20103;-52
2022/05/06 09:07:25;;;;;;;9.73;6.78;;;22.40;99.90;;;;;;5050576;28;20035;-51
2022/05/06 09:10:09;;;;;;;32.00;7.53;;;22.50;99.90;;;;;;5050713;28;20037;-52
2022/05/06 09:12:41;;;;;;;8.48;6.38;;;22.40;99.90;;;;;;5050877;28;20134;-52
2022/05/06 09:17:52;;;;;;;11.75;6.88;;;22.60;99.90;;;;;;5050849;28;19912;-52
2022/05/06 09:20:19;;;;;;;12.30;6.22;;;22.30;99.90;;;;;;5047950;28;20033;-52
2022/05/06 09:22:47;;;;;;;7.65;6.30;;;22.20;99.90;;;;;;5051185;28;20100;-53
2022/05/06 09:25:38;;;;;;;8.90;5.78;;;21.80;99.90;;;;;;5050674;28;20114;-53
2022/05/06 09:28:06;;;;;;;9.00;6.10;;;21.90;99.90;;;;;;5064608;28;20392;-51
2022/05/06 09:30:33;;;;;;;6.40;5.60;;;22.00;99.90;;;;;;5031956;28;20063;-53
2022/05/06 09:32:59;;;;;;;8.48;6.03;;;22.10;99.90;;;;;;5051370;28;20025;-51
2022/05/06 09:35:31;;;;;;;5.90;5.30;;;22.00;99.90;;;;;;5051033;28;20021;-50
2022/05/06 09:37:56;;;;;;;7.05;5.53;;;22.10;99.90;;;;;;5049085;28;20473;-51
2022/05/06 09:40:28;;;;;;;7.50;4.72;;;21.90;99.90;;;;;;5051179;28;20036;-51
2022/05/06 09:42:54;;;;;;;;;;;22.10;99.90;;;;;;5055145;28;20037;-50
2022/05/06 09:45:30;;;;;;;7.03;5.35;;;22.30;99.90;;;;;;5035611;28;19939;-52
2022/05/06 09:47:58;;;;;;;6.68;5.30;;;22.40;99.90;;;;;;5054444;28;20032;-53
2022/05/06 09:50:48;;;;;;;7.22;5.43;;;22.50;99.90;;;;;;5054106;28;20037;-53
2022/05/06 09:53:15;;;;;;;7.22;5.05;;;;;;;;;;5035244;28;20102;-51
2022/05/06 09:55:44;;;;;;;6.80;5.10;;;22.90;99.90;;;;;;5054934;28;20392;-52
2022/05/06 09:58:11;;;;;;;7.88;5.72;;;22.80;99.90;;;;;;5053484;28;20040;-51
2022/05/06 10:00:40;;;;;;;9.23;4.90;;;22.90;99.90;;;;;;5054780;28;20025;-52
2022/05/06 10:03:07;;;;;;;8.77;4.15;;;;;;;;;;5054587;28;20033;-52
2022/05/06 10:05:34;;;;;;;5.72;4.40;;;23.90;99.90;;;;;;5052331;28;20032;-52
2022/05/06 10:08:14;;;;;;;5.20;4.20;;;;;;;;;;5035773;28;20068;-52
2022/05/06 10:10:42;;;;;;;9.75;5.05;;;;;;;;;;5035507;28;20413;-53
2022/05/06 10:13:16;;;;;;;7.05;5.45;;;24.60;99.90;;;;;;5054073;28;20142;-53
2022/05/06 10:15:42;;;;;;;9.65;5.47;;;24.70;99.90;;;;;;5054492;28;20082;-52
2022/05/06 10:18:08;;;;;;;7.50;5.40;;;;;;;;;;5054282;28;20037;-53
2022/05/06 10:20:37;;;;;;;7.70;4.97;;;;;;;;;;5018983;28;20025;-52
2022/05/06 10:23:07;;;;;;;8.57;5.38;;;25.40;99.90;;;;;;5054302;28;20036;-53
2022/05/06 10:25:42;;;;;;;6.05;5.20;;;25.50;99.90;;;;;;5053094;28;20052;-51
2022/05/06 10:34:07;;;;;;;8.20;5.85;;;24.60;99.70;;;;;;5053744;28;20081;-51
2022/05/06 10:36:46;;;;;;;7.65;5.32;;;25.10;99.90;;;;;;5034704;28;20542;-51
2022/05/06 10:39:20;;;;;;;9.82;6.03;;;25.30;99.30;;;;;;5053542;28;20545;-49
2022/05/06 10:42:15;;;;;;;17.23;8.25;;;25.60;99.10;;;;;;5052627;28;20124;-50
2022/05/06 10:44:43;;;;;;;9.50;6.72;;;25.70;98.10;;;;;;5053235;28;20104;-51
2022/05/06 10:47:11;;;;;;;6.40;5.72;;;25.80;97.80;;;;;;5053353;28;20017;-50
2022/05/06 10:49:40;;;;;;;12.93;6.40;;;25.70;97.40;;;;;;5052650;28;20114;-51
2022/05/06 10:52:23;;;;;;;6.25;5.30;;;25.70;97.60;;;;;;5051811;28;20044;-52
2022/05/06 10:54:53;;;;;;;9.35;6.53;;;25.70;97.40;;;;;;5052153;28;20478;-51
2022/05/06 10:57:23;;;;;;;11.85;6.78;;;25.60;97.30;;;;;;5053526;28;20431;-53
2022/05/06 10:59:55;;;;;;;9.75;6.85;;;25.70;98.10;;;;;;5053456;28;20024;-52
2022/05/06 11:02:33;;;;;;;10.80;6.47;;;25.80;97.90;;;;;;5051306;28;20033;-53
2022/05/06 11:05:01;;;;;;;11.43;6.30;;;25.70;98.80;;;;;;5053697;28;20033;-54
2022/05/06 11:07:28;;;;;;;11.07;6.50;;;25.60;99.10;;;;;;5053115;28;20388;-53
2022/05/06 11:09:55;;;;;;;8.60;6.30;;;25.80;99.10;;;;;;5053445;28;20021;-52
2022/05/06 11:12:40;;;;;;;8.07;5.78;;;25.90;98.00;;;;;;5051498;28;20091;-54
2022/05/06 11:15:14;;;;;;;6.65;5.90;;;25.60;97.80;;;;;;5049943;28;20022;-52
2022/05/06 11:17:44;;;;;;;11.10;6.35;;;25.70;97.90;;;;;;5046669;28;20060;-52
2022/05/06 11:20:18;;;;;;;11.27;6.28;;;25.70;96.30;;;;;;5049924;28;20499;-54
2022/05/06 11:22:55;;;;;;;8.02;6.45;;;25.60;96.00;;;;;;5029970;28;20178;-54
2022/05/06 11:25:24;;;;;;;13.88;5.68;;;25.80;96.80;;;;;;5051424;28;20059;-54
2022/05/06 11:27:53;;;;;;;8.55;6.30;;;;;;;;;;5033436;28;20087;-53
2022/05/06 11:30:21;;;;;;;7.38;5.65;;;26.30;99.90;;;;;;5049802;28;20040;-52
2022/05/06 11:32:55;;;;;;;8.95;6.30;;;26.10;99.90;;;;;;5051770;28;20108;-53
2022/05/06 11:35:33;;;;;;;6.80;5.88;;;26.40;97.50;;;;;;5051330;28;20032;-52
2022/05/06 11:38:00;;;;;;;8.73;5.97;;;25.80;96.00;;;;;;5033715;28;20143;-53
2022/05/06 11:42:57;;;;;;;9.80;6.40;;;25.70;97.30;;;;;;5050405;28;20041;-54
2022/05/06 11:48:12;;;;;;;14.77;6.80;;;26.10;96.20;;;;;;5052686;28;20079;-52
2022/05/06 11:50:39;;;;;;;10.77;5.88;;;26.10;96.50;;;;;;5052225;28;20051;-54
2022/05/06 11:53:10;;;;;;;8.05;6.50;;;26.10;97.20;;;;;;4998417;28;20127;-52
2022/05/06 11:55:38;;;;;;;8.90;5.68;;;26.00;95.50;;;;;;5047577;28;20110;-54
2022/05/06 11:58:05;;;;;;;11.32;6.72;;;26.20;95.90;;;;;;5049757;28;20179;-54
2022/05/06 12:00:31;;;;;;;6.63;5.20;;;26.20;95.80;;;;;;5050518;28;20393;-54
2022/05/06 12:03:02;;;;;;;7.25;5.60;;;26.10;95.60;;;;;;5051643;28;20037;-52
2022/05/06 12:05:28;;;;;;;6.95;5.15;;;25.70;95.30;;;;;;5051501;28;20358;-54
2022/05/06 12:07:54;;;;;;;13.90;9.98;;;25.80;95.50;;;;;;5051807;28;20036;-55
2022/05/06 12:10:27;;;;;;;10.88;9.73;;;25.60;95.70;;;;;;5051541;28;20032;-52
2022/05/06 12:12:59;;;;;;;10.10;6.68;;;25.20;95.90;;;;;;5015127;28;20028;-52
2022/05/06 12:15:41;;;;;;;9.27;8.38;;;25.40;95.70;;;;;;5051285;28;20028;-54
2022/05/06 12:18:08;;;;;;;11.65;6.22;;;25.60;96.40;;;;;;5027634;28;20043;-55
2022/05/06 12:20:36;;;;;;;7.60;5.85;;;25.50;96.40;;;;;;5027747;28;20037;-52
2022/05/06 12:23:04;;;;;;;6.43;5.57;;;25.60;96.00;;;;;;5025409;28;20478;-54
2022/05/06 12:25:30;;;;;;;8.38;6.13;;;25.80;95.40;;;;;;4994278;28;20025;-52
2022/05/06 12:28:08;;;;;;;9.25;5.50;;;25.50;95.30;;;;;;4993525;28;20091;-54
2022/05/06 12:30:35;;;;;;;10.43;5.80;;;25.60;95.50;;;;;;5027952;28;20533;-54
2022/05/06 12:33:09;;;;;;;8.52;5.70;;;26.00;95.60;;;;;;5026271;28;20034;-53
2022/05/06 12:36:00;;;;;;;6.20;5.50;;;26.20;95.60;;;;;;5011051;28;20037;-54
2022/05/06 12:38:48;;;;;;;15.85;6.70;;;26.20;95.10;;;;;;5009001;28;20477;-52
2022/05/06 12:41:21;;;;;;;10.85;5.68;;;;;;;;;;5007769;28;20025;-54
2022/05/06 12:43:48;;;;;;;7.22;4.50;;;26.70;94.70;;;;;;5007742;28;20034;-53
2022/05/06 12:46:26;;;;;;;10.00;5.32;;;26.60;99.90;;;;;;5003327;28;20023;-53
2022/05/06 12:51:39;;;;;;;10.05;5.30;;;25.80;95.30;;;;;;5028149;28;20612;-53
2022/05/06 12:54:04;;;;;;;5.32;4.60;;;26.10;95.70;;;;;;5028867;28;20057;-53
2022/05/06 12:56:30;;;;;;;7.38;4.90;;;25.70;94.60;;;;;;5030146;28;20037;-54
2022/05/06 12:58:56;;;;;;;8.18;4.95;;;25.80;95.30;;;;;;5031360;28;20049;-52
2022/05/06 13:01:22;;;;;;;8.05;4.63;;;25.70;95.10;;;;;;5014942;28;20053;-52
2022/05/06 13:03:48;;;;;;;10.38;4.70;;;25.50;94.60;;;;;;5014903;28;20477;-52
2022/05/06 13:06:14;;;;;;;13.38;4.80;;;25.70;96.20;;;;;;5031442;28;20061;-53
2022/05/06 13:08:40;;;;;;;7.70;4.65;;;25.90;96.30;;;;;;4986416;28;20442;-53
2022/05/06 13:11:05;;;;;;;5.78;4.72;;;26.20;96.50;;;;;;5053326;28;20507;-53
2022/05/06 13:13:31;;;;;;;9.73;5.05;;;25.60;95.00;;;;;;5053255;28;20041;-53
2022/05/06 13:15:59;;;;;;;6.10;4.20;;;25.90;96.00;;;;;;5052543;28;20063;-50
2022/05/06 13:18:27;;;;;;;6.72;4.72;;;25.90;94.80;;;;;;5084376;28;20521;-52
2022/05/06 13:20:53;;;;;;;6.18;4.28;;;25.90;94.80;;;;;;5051746;28;20045;-50
2022/05/06 13:23:19;;;;;;;7.03;4.70;;;26.10;95.10;;;;;;5085101;28;20044;-53
2022/05/06 13:25:45;;;;;;;10.40;4.63;;;26.10;94.50;;;;;;5053216;28;20033;-52
2022/05/06 13:28:12;;;;;;;9.07;4.65;;;25.90;94.80;;;;;;5053229;28;20031;-52
2022/05/06 13:30:38;;;;;;;6.32;4.20;;;;;;;;;;5053030;28;20440;-55
2022/05/06 13:33:04;;;;;;;9.77;4.82;;;;;;;;;;5053358;28;20032;-53
2022/05/06 13:35:30;;;;;;;6.47;4.55;;;;;;;;;;5053476;28;20033;-51
2022/05/06 13:37:57;;;;;;;6.45;3.85;;;26.70;94.50;;;;;;5084489;28;20401;-53